Time;durP1;ratioP1;P1;durP2;ratioP2;P2;SDS_P1;SDS_P2;PMS_P1;PMS_P2;Temp;Humidity;BMP_temperature;BMP_pressure;BME280_temperature;BME280_humidity;BME280_pressure;Samples;Min_cycle;Max_cycle;Signal;HPM_P1;HPM_P2
2022/07/15 00:00:17;;;;;;;;;;;563.60;1766.40;;;;;;5091265;28;19923;-60
2022/07/15 00:02:42;;;;;;;;;;;563.50;1766.40;;;;;;5091381;28;20411;-61
2022/07/15 00:05:08;;;;;;;;;;;563.50;1766.40;;;;;;5091297;28;19908;-59
2022/07/15 00:07:34;;;;;;;;;;;563.40;1792.00;;;;;;5091372;28;20053;-60
2022/07/15 00:10:15;;;;;;;;;;;563.40;1792.00;;;;;;5091088;28;19912;-63
2022/07/15 00:12:42;;;;;;;;;;;563.30;1792.00;;;;;;5090924;28;19945;-59
2022/07/15 00:15:08;;;;;;;;;;;563.40;1766.40;;;;;;5091259;28;20277;-59
2022/07/15 00:17:34;;;;;;;;;;;563.30;1766.40;;;;;;5091133;28;19911;-59
2022/07/15 00:20:00;;;;;;;;;;;563.30;1766.40;;;;;;5090866;28;20292;-58
2022/07/15 00:22:25;;;;;;;;;;;563.30;1792.00;;;;;;5091084;28;19909;-61
2022/07/15 00:24:51;;;;;;;;;;;563.30;1792.00;;;;;;5090959;28;20366;-61
2022/07/15 00:27:17;;;;;;;;;;;563.20;1792.00;;;;;;5091045;28;19912;-60
2022/07/15 00:29:42;;;;;;;;;;;563.20;1792.00;;;;;;5090725;28;20013;-59
2022/07/15 00:32:08;;;;;;;;;;;538.50;1766.40;;;;;;5090760;28;19923;-62
2022/07/15 00:34:34;;;;;;;;;;;563.20;1792.00;;;;;;5090843;28;19908;-59
2022/07/15 00:36:59;;;;;;;;;;;538.50;1766.40;;;;;;5090701;28;19931;-59
2022/07/15 00:39:25;;;;;;;;;;;538.50;1766.40;;;;;;5090911;28;19912;-58
2022/07/15 00:41:51;;;;;;;;;;;538.50;1740.80;;;;;;5090647;28;19912;-59
2022/07/15 00:44:16;;;;;;;;;;;538.50;1766.40;;;;;;5090778;28;20568;-61
2022/07/15 00:46:42;;;;;;;;;;;538.40;1792.00;;;;;;5090949;28;19916;-62
2022/07/15 00:49:08;;;;;;;;;;;538.40;1792.00;;;;;;5090342;28;19951;-59
2022/07/15 00:51:37;;;;;;;;;;;538.40;1766.40;;;;;;5090602;28;19916;-59
2022/07/15 00:54:04;;;;;;;;;;;538.40;1766.40;;;;;;5090651;28;19908;-61
2022/07/15 00:56:30;;;;;;;;;;;538.40;1740.80;;;;;;5090536;28;19915;-61
2022/07/15 00:58:57;;;;;;;;;;;538.40;1766.40;;;;;;5090622;28;19931;-58
2022/07/15 01:01:22;;;;;;;;;;;538.40;1766.40;;;;;;5090640;28;19964;-59
2022/07/15 01:03:49;;;;;;;;;;;538.40;1766.40;;;;;;5093600;28;19944;-59
2022/07/15 01:06:14;;;;;;;;;;;538.40;1766.40;;;;;;5094761;28;19933;-60
2022/07/15 01:08:40;;;;;;;;;;;538.40;1766.40;;;;;;5094494;28;19909;-59
2022/07/15 01:11:06;;;;;;;;;;;538.30;1792.00;;;;;;5094613;28;19978;-64
2022/07/15 01:13:31;;;;;;;;;;;538.30;1766.40;;;;;;5094336;28;20366;-63
2022/07/15 01:15:57;;;;;;;;;;;538.20;1792.00;;;;;;5094435;28;19908;-59
2022/07/15 01:18:22;;;;;;;;;;;538.10;1792.00;;;;;;5094834;28;19908;-59
2022/07/15 01:20:48;;;;;;;;;;;538.10;1792.00;;;;;;5094420;28;19908;-60
2022/07/15 01:23:14;;;;;;;;;;;538.10;1792.00;;;;;;5093169;28;19915;-61
2022/07/15 01:25:40;;;;;;;;;;;538.10;1792.00;;;;;;5094218;28;19909;-59
2022/07/15 01:28:07;;;;;;;;;;;538.10;1792.00;;;;;;5094448;28;19962;-62
2022/07/15 01:30:33;;;;;;;;;;;538.00;1817.60;;;;;;5094167;28;19917;-59
2022/07/15 01:32:58;;;;;;;;;;;538.10;1792.00;;;;;;5094155;28;19953;-59
2022/07/15 01:35:24;;;;;;;;;;;538.00;1817.60;;;;;;5094449;28;20401;-60
2022/07/15 01:37:49;;;;;;;;;;;538.00;1817.60;;;;;;5094001;28;19908;-59
2022/07/15 01:40:15;;;;;;;;;;;538.00;1817.60;;;;;;5093930;28;19912;-63
2022/07/15 01:42:41;;;;;;;;;;;538.00;1843.20;;;;;;5093814;28;20070;-64
2022/07/15 01:45:07;;;;;;;;;;;538.00;1843.20;;;;;;5093884;28;19930;-58
2022/07/15 01:47:32;;;;;;;;;;;537.80;1843.20;;;;;;5094011;28;19908;-59
2022/07/15 01:49:58;;;;;;;;;;;537.80;1843.20;;;;;;5093681;28;20010;-59
2022/07/15 01:52:24;;;;;;;;;;;537.80;1817.60;;;;;;5094059;28;19939;-58
2022/07/15 01:54:50;;;;;;;;;;;537.80;1817.60;;;;;;5093812;28;19969;-64
2022/07/15 01:57:16;;;;;;;;;;;537.80;1817.60;;;;;;5093731;28;19908;-64
2022/07/15 01:59:41;;;;;;;;;;;537.70;1843.20;;;;;;5093326;28;20384;-62
2022/07/15 02:02:07;;;;;;;;;;;537.70;1843.20;;;;;;5093598;28;19951;-60
2022/07/15 02:04:32;;;;;;;;;;;537.60;1843.20;;;;;;5093763;28;20255;-64
2022/07/15 02:06:58;;;;;;;;;;;537.60;1843.20;;;;;;5093608;28;19914;-61
2022/07/15 02:09:24;;;;;;;;;;;537.60;1843.20;;;;;;5093526;28;19908;-60
2022/07/15 02:11:49;;;;;;;;;;;512.90;1843.20;;;;;;5093294;28;19920;-58
2022/07/15 02:14:15;;;;;;;;;;;537.60;1843.20;;;;;;5092843;28;19912;-61
2022/07/15 02:16:40;;;;;;;;;;;537.60;1843.20;;;;;;5093215;28;19915;-58
2022/07/15 02:19:08;;;;;;;;;;;512.90;1843.20;;;;;;5093229;28;19944;-65
2022/07/15 02:21:34;;;;;;;;;;;512.90;1843.20;;;;;;5093442;28;19931;-59
2022/07/15 02:24:00;;;;;;;;;;;512.90;1817.60;;;;;;5093258;28;20366;-61
2022/07/15 02:26:25;;;;;;;;;;;512.90;1843.20;;;;;;5093254;28;20366;-60
2022/07/15 02:28:51;;;;;;;;;;;512.80;1843.20;;;;;;5093112;28;19953;-59
2022/07/15 02:31:17;;;;;;;;;;;512.80;1843.20;;;;;;5093128;28;20053;-60
2022/07/15 02:33:43;;;;;;;;;;;512.80;1843.20;;;;;;5092944;28;19912;-60
2022/07/15 02:36:08;;;;;;;;;;;512.70;1843.20;;;;;;5092926;28;19909;-61
2022/07/15 02:38:34;;;;;;;;;;;512.70;1843.20;;;;;;5093208;28;19912;-64
2022/07/15 02:40:59;;;;;;;;;;;512.70;1843.20;;;;;;5092706;28;20362;-61
2022/07/15 02:43:25;;;;;;;;;;;512.70;1843.20;;;;;;5093078;28;19912;-61
2022/07/15 02:45:50;;;;;;;;;;;512.70;1868.80;;;;;;5092853;28;19909;-60
2022/07/15 02:48:16;;;;;;;;;;;512.60;1868.80;;;;;;5092783;28;20281;-60
2022/07/15 02:50:41;;;;;;;;;;;512.70;1868.80;;;;;;5092514;28;19916;-61
2022/07/15 02:53:07;;;;;;;;;;;512.70;1868.80;;;;;;5092808;28;19912;-62
2022/07/15 02:55:33;;;;;;;;;;;512.60;1868.80;;;;;;5092668;28;20338;-60
2022/07/15 02:57:59;;;;;;;;;;;512.50;1868.80;;;;;;5092413;28;19979;-60
2022/07/15 03:00:25;;;;;;;;;;;512.50;1894.40;;;;;;5092486;28;19920;-61
2022/07/15 03:02:50;;;;;;;;;;;512.40;1920.00;;;;;;5092454;28;19915;-61
2022/07/15 03:05:17;;;;;;;;;;;512.30;1894.40;;;;;;5092657;28;19914;-61
2022/07/15 03:07:43;;;;;;;;;;;512.40;1894.40;;;;;;5092574;28;20344;-60
2022/07/15 03:10:09;;;;;;;;;;;512.50;1868.80;;;;;;5092065;28;19912;-61
2022/07/15 03:12:35;;;;;;;;;;;512.50;1868.80;;;;;;5092446;28;20017;-63
2022/07/15 03:15:01;;;;;;;;;;;512.50;1868.80;;;;;;5092260;28;19908;-60
2022/07/15 03:17:27;;;;;;;;;;;512.50;1868.80;;;;;;5092310;28;20102;-61
2022/07/15 03:19:55;;;;;;;;;;;512.40;1894.40;;;;;;5092653;28;19908;-60
2022/07/15 03:22:21;;;;;;;;;;;512.60;1894.40;;;;;;5092085;28;19912;-64
2022/07/15 03:24:48;;;;;;;;;;;512.50;1894.40;;;;;;5092248;28;19908;-60
2022/07/15 03:27:14;;;;;;;;;;;512.50;1894.40;;;;;;5091122;28;19912;-60
2022/07/15 03:29:40;;;;;;;;;;;512.30;1920.00;;;;;;5091657;28;20044;-61
2022/07/15 03:32:06;;;;;;;;;;;512.30;1945.60;;;;;;5091962;28;19944;-61
2022/07/15 03:34:32;;;;;;;;;;;512.20;1945.60;;;;;;5091603;28;20358;-61
2022/07/15 03:36:59;;;;;;;;;;;512.20;1971.20;;;;;;5091679;28;19920;-61
2022/07/15 03:39:24;;;;;;;;;;;512.10;1945.60;;;;;;5092089;28;19915;-60
2022/07/15 03:41:50;;;;;;;;;;;512.20;1945.60;;;;;;5091652;28;20293;-60
2022/07/15 03:44:17;;;;;;;;;;;512.20;1945.60;;;;;;5091831;28;19912;-60
2022/07/15 03:46:45;;;;;;;;;;;512.30;1920.00;;;;;;5091736;28;20271;-60
2022/07/15 03:49:11;;;;;;;;;;;512.40;1920.00;;;;;;5091596;28;19978;-60
2022/07/15 03:51:37;;;;;;;;;;;512.60;1894.40;;;;;;5091614;28;20100;-60
2022/07/15 03:54:03;;;;;;;;;;;512.50;1920.00;;;;;;5091753;28;20328;-61
2022/07/15 03:56:29;;;;;;;;;;;512.50;1945.60;;;;;;5091546;28;20389;-60
2022/07/15 03:58:55;;;;;;;;;;;512.70;1920.00;;;;;;5091575;28;20344;-64
2022/07/15 04:01:21;;;;;;;;;;;512.70;1920.00;;;;;;5091195;28;19924;-59
2022/07/15 04:03:48;;;;;;;;;;;512.80;1894.40;;;;;;5091238;28;20339;-64
2022/07/15 04:06:14;;;;;;;;;;;512.90;1894.40;;;;;;5091548;28;19919;-63
2022/07/15 04:08:40;;;;;;;;;;;512.90;1894.40;;;;;;5091078;28;19912;-62
2022/07/15 04:11:05;;;;;;;;;;;512.90;1894.40;;;;;;5091300;28;20320;-62
2022/07/15 04:13:31;;;;;;;;;;;537.60;1920.00;;;;;;5091005;28;19965;-62
2022/07/15 04:15:56;;;;;;;;;;;537.60;1920.00;;;;;;5091274;28;20365;-61
2022/07/15 04:18:23;;;;;;;;;;;537.60;1920.00;;;;;;5091234;28;20251;-62
2022/07/15 04:20:48;;;;;;;;;;;537.60;1920.00;;;;;;5091072;28;20313;-61
2022/07/15 04:23:14;;;;;;;;;;;537.70;1894.40;;;;;;5091091;28;20270;-62
2022/07/15 04:25:40;;;;;;;;;;;537.80;1894.40;;;;;;5090743;28;19974;-62
2022/07/15 04:28:05;;;;;;;;;;;537.90;1894.40;;;;;;5091026;28;19915;-62
2022/07/15 04:30:31;;;;;;;;;;;538.00;1894.40;;;;;;5090711;28;20358;-61
2022/07/15 04:32:56;;;;;;;;;;;538.10;1868.80;;;;;;5090948;28;20274;-62
2022/07/15 04:35:22;;;;;;;;;;;538.10;1843.20;;;;;;5090693;28;19912;-61
2022/07/15 04:37:47;;;;;;;;;;;538.30;1843.20;;;;;;5090485;28;19986;-62
2022/07/15 04:40:13;;;;;;;;;;;538.40;1868.80;;;;;;5090778;28;20003;-63
2022/07/15 04:42:39;;;;;;;;;;;538.50;1843.20;;;;;;5090534;28;19965;-60
2022/07/15 04:45:05;;;;;;;;;;;589.30;1766.40;;;;;;5090824;28;20000;-65
2022/07/15 04:47:31;;;;;;;;;;;717.20;1459.20;;;;;;5090441;28;19918;-63
2022/07/15 04:52:44;;;;;;;;;;;870.50;1152.00;;;;;;5090787;28;19915;-65
2022/07/15 04:55:10;;;;;;;;;;;896.70;1075.20;;;;;;5090401;28;20010;-62
2022/07/15 04:57:36;;;;;;;;;;;947.40;998.40;;;;;;5090571;28;19958;-62
2022/07/15 05:00:02;;;;;;;;;;;973.10;972.80;;;;;;5090237;28;19943;-61
2022/07/15 05:02:28;;;;;;;;;;;;;;;;;;5090290;28;19912;-64
2022/07/15 05:04:54;;;;;;;;;;;973.70;947.20;;;;;;5090553;28;19962;-64
2022/07/15 05:07:19;;;;;;;;;;;1024.60;896.00;;;;;;5090345;28;19999;-62
2022/07/15 05:09:45;;;;;;;;;;;1024.70;896.00;;;;;;5090748;28;19908;-64
2022/07/15 05:12:11;;;;;;;;;;;1049.60;921.60;;;;;;5088847;28;19916;-64
2022/07/15 05:14:40;;;;;;;;;;;1050.10;921.60;;;;;;5090499;28;19912;-63
2022/07/15 05:17:06;;;;;;;;;;;1075.70;870.40;;;;;;5090401;28;19916;-60
2022/07/15 05:19:32;;;;;;;;;;;1101.10;870.40;;;;;;5090150;28;19908;-59
2022/07/15 05:21:58;;;;;;;;;;;1101.50;844.80;;;;;;5090407;28;20362;-61
2022/07/15 05:24:23;;;;;;;;;;;;;;;;;;5090511;28;20362;-61
2022/07/15 05:26:49;;;;;;;;;;;1101.70;844.80;;;;;;5090331;28;19915;-64
2022/07/15 05:29:15;;;;;;;;;;;1101.40;844.80;;;;;;5090470;28;20327;-63
2022/07/15 05:31:40;;;;;;;;;;;1101.50;844.80;;;;;;5090017;28;20358;-62
2022/07/15 05:34:06;;;;;;;;;;;1127.10;819.20;;;;;;5090150;28;19908;-64
2022/07/15 05:36:32;;;;;;;;;;;1177.60;793.60;;;;;;5090019;28;19970;-63
2022/07/15 05:38:58;;;;;;;;;;;1178.20;768.00;;;;;;5090380;28;19920;-63
2022/07/15 05:41:23;;;;;;;;;;;1203.60;768.00;;;;;;5090186;28;19916;-62
2022/07/15 05:43:49;;;;;;;;;;;1228.80;768.00;;;;;;5089995;28;19919;-65
2022/07/15 05:46:14;;;;;;;;;;;1229.30;742.40;;;;;;5090219;28;19909;-65
2022/07/15 05:48:41;;;;;;;;;;;1229.20;742.40;;;;;;5089883;28;20018;-66
2022/07/15 05:51:06;;;;;;;;;;;1254.50;742.40;;;;;;5093321;28;19916;-63
2022/07/15 05:53:32;;;;;;;;;;;1229.70;716.80;;;;;;5093851;28;19953;-60
2022/07/15 05:55:58;;;;;;;;;;;1254.80;742.40;;;;;;5093679;28;20378;-63
2022/07/15 05:58:24;;;;;;;;;;;1254.80;742.40;;;;;;5094037;28;20381;-65
2022/07/15 06:00:50;;;;;;;;;;;1280.00;716.80;;;;;;5093702;28;19951;-65
2022/07/15 06:03:15;;;;;;;;;;;1255.30;716.80;;;;;;5093879;28;19908;-63
2022/07/15 06:05:41;;;;;;;;;;;1255.30;716.80;;;;;;5093482;28;19990;-66
2022/07/15 06:08:07;;;;;;;;;;;1229.50;716.80;;;;;;5093427;28;20019;-62
2022/07/15 06:10:32;;;;;;;;;;;1254.60;716.80;;;;;;5093205;28;19920;-62
2022/07/15 06:12:58;;;;;;;;;;;1254.40;716.80;;;;;;5093510;28;20007;-64
2022/07/15 06:15:24;;;;;;;;;;;1280.70;691.20;;;;;;5093421;28;19974;-62
2022/07/15 06:17:49;;;;;;;;;;;1306.00;640.00;;;;;;5093517;28;19947;-62
2022/07/15 06:20:15;;;;;;;;;;;1306.00;640.00;;;;;;5093284;28;19936;-64
2022/07/15 06:22:41;;;;;;;;;;;1306.00;640.00;;;;;;5093214;28;19915;-67
2022/07/15 06:25:07;;;;;;;;;;;1306.20;640.00;;;;;;5093337;28;19908;-68
2022/07/15 06:27:34;;;;;;;;;;;1255.00;691.20;;;;;;5092455;28;19965;-68
2022/07/15 06:30:00;;;;;;;;;;;1255.10;691.20;;;;;;5091724;28;19973;-62
2022/07/15 06:32:25;;;;;;;;;;;1254.80;716.80;;;;;;5110107;28;19912;-68
2022/07/15 06:34:51;;;;;;;;;;;1229.50;716.80;;;;;;5113200;28;19908;-68
2022/07/15 06:37:17;;;;;;;;;;;1254.80;716.80;;;;;;5113787;28;20586;-69
2022/07/15 06:39:42;;;;;;;;;;;1280.00;691.20;;;;;;5113463;28;19992;-67
2022/07/15 06:42:08;;;;;;;;;;;1306.20;665.60;;;;;;5110696;28;20438;-62
2022/07/15 06:44:34;;;;;;;;;;;1305.60;665.60;;;;;;5092427;28;20042;-62
2022/07/15 06:47:00;;;;;;;;;;;1306.00;640.00;;;;;;5091811;28;19969;-69
2022/07/15 06:49:25;;;;;;;;;;;1331.40;640.00;;;;;;5092701;28;19996;-63
2022/07/15 06:51:51;;;;;;;;;;;1331.40;640.00;;;;;;5092714;28;20390;-67
2022/07/15 06:54:18;;;;;;;;;;;1306.20;640.00;;;;;;5092762;28;20418;-66
2022/07/15 06:56:44;;;;;;;;;;;1331.90;640.00;;;;;;5092332;28;19962;-68
2022/07/15 06:59:09;;;;;;;;;;;1331.20;640.00;;;;;;5092728;28;19908;-68
2022/07/15 07:01:35;;;;;;;;;;;1356.90;640.00;;;;;;5092342;28;19920;-64
2022/07/15 07:04:00;;;;;;;;;;;1357.50;640.00;;;;;;5092347;28;19908;-67
2022/07/15 07:06:26;;;;;;;;;;;1331.60;640.00;;;;;;5092563;28;19908;-66
2022/07/15 07:08:52;;;;;;;;;;;1357.70;614.40;;;;;;5092320;28;19959;-68
2022/07/15 07:11:18;;;;;;;;;;;1331.60;665.60;;;;;;5090689;28;20019;-63
2022/07/15 07:13:44;;;;;;;;;;;1357.40;640.00;;;;;;5092649;28;20358;-68
2022/07/15 07:16:10;;;;;;;;;;;1357.20;640.00;;;;;;5092221;28;19953;-69
2022/07/15 07:18:35;;;;;;;;;;;1382.90;640.00;;;;;;5092293;28;19915;-64
2022/07/15 07:21:01;;;;;;;;;;;1357.20;640.00;;;;;;5090706;28;20354;-69
2022/07/15 07:23:27;;;;;;;;;;;1356.80;665.60;;;;;;5091986;28;19908;-64
2022/07/15 07:25:53;;;;;;;;;;;1357.20;640.00;;;;;;5092179;28;20041;-65
2022/07/15 07:28:19;;;;;;;;;;;1382.60;665.60;;;;;;5092117;28;19908;-62
2022/07/15 07:30:46;;;;;;;;;;;1332.10;640.00;;;;;;5091766;28;20382;-66
2022/07/15 07:33:11;;;;;;;;;;;1306.50;640.00;;;;;;5091817;28;19991;-60
2022/07/15 07:35:37;;;;;;;;;;;1306.20;640.00;;;;;;5091541;28;19912;-64
2022/07/15 07:38:03;;;;;;;;;;;1357.40;640.00;;;;;;5091950;28;19908;-64
2022/07/15 07:40:29;;;;;;;;;;;1357.70;640.00;;;;;;5091619;28;19912;-66
2022/07/15 07:42:56;;;;;;;;;;;1331.20;665.60;;;;;;5091648;28;20278;-66
2022/07/15 07:45:22;;;;;;;;;;;1356.80;665.60;;;;;;5091808;28;19930;-66
2022/07/15 07:47:48;;;;;;;;;;;1357.10;665.60;;;;;;5091581;28;20335;-64
2022/07/15 07:50:13;;;;;;;;;;;1357.70;640.00;;;;;;5091538;28;19955;-63
2022/07/15 07:52:39;;;;;;;;;;;1357.10;665.60;;;;;;5091292;28;19908;-63
2022/07/15 07:55:05;;;;;;;;;;;1357.20;665.60;;;;;;5091745;28;19966;-67
2022/07/15 07:57:32;;;;;;;;;;;1356.90;665.60;;;;;;5091481;28;19998;-65
2022/07/15 07:59:58;;;;;;;;;;;1331.40;665.60;;;;;;5091040;28;19919;-63
2022/07/15 08:02:24;;;;;;;;;;;1357.10;640.00;;;;;;5091482;28;20351;-62
2022/07/15 08:04:49;;;;;;;;;;;1331.90;665.60;;;;;;5091203;28;20361;-65
2022/07/15 08:07:15;;;;;;;;;;;1357.40;640.00;;;;;;5091130;28;19908;-63
2022/07/15 08:09:41;;;;;;;;;;;1332.10;640.00;;;;;;5091404;28;19961;-67
2022/07/15 08:12:07;;;;;;;;;;;1280.70;665.60;;;;;;5090879;28;20274;-64
2022/07/15 08:14:33;;;;;;;;;;;1255.10;716.80;;;;;;5091207;28;20275;-62
2022/07/15 08:16:58;;;;;;;;;;;1280.20;665.60;;;;;;5090921;28;19908;-65
2022/07/15 08:19:24;;;;;;;;;;;1306.50;614.40;;;;;;5091086;28;19934;-62
2022/07/15 08:21:50;;;;;;;;;;;1280.00;665.60;;;;;;5091003;28;19995;-66
2022/07/15 08:24:16;;;;;;;;;;;1203.70;691.20;;;;;;5091300;28;19965;-62
2022/07/15 08:26:43;;;;;;;;;;;1152.20;716.80;;;;;;5091157;28;19909;-64
2022/07/15 08:29:08;;;;;;;;;;;1101.10;819.20;;;;;;5090732;28;19912;-63
2022/07/15 08:31:35;;;;;;;;;;;1049.70;819.20;;;;;;5090827;28;19924;-60
2022/07/15 08:34:00;;;;;;;;;;;1024.60;819.20;;;;;;5090700;28;19914;-62
2022/07/15 08:36:26;;;;;;;;;;;998.50;870.40;;;;;;5090825;28;19908;-61
2022/07/15 08:38:51;;;;;;;;;;;998.40;896.00;;;;;;5090599;28;20215;-65
2022/07/15 08:41:17;;;;;;;;;;;973.70;870.40;;;;;;5090798;28;19916;-61
2022/07/15 08:43:43;;;;;;;;;;;973.50;870.40;;;;;;5090736;28;19955;-62
2022/07/15 08:46:08;;;;;;;;;;;972.80;896.00;;;;;;5090600;28;19908;-64
2022/07/15 08:48:35;;;;;;;;;;;973.10;896.00;;;;;;5090737;28;19931;-64
2022/07/15 08:51:02;;;;;;;;;;;973.30;896.00;;;;;;5090322;28;19923;-66
2022/07/15 08:53:30;;;;;;;;;;;947.40;870.40;;;;;;5090419;28;19909;-63
2022/07/15 08:55:56;;;;;;;;;;;947.70;870.40;;;;;;5090475;28;20265;-63
2022/07/15 08:58:22;;;;;;;;;;;947.40;896.00;;;;;;5090556;28;19999;-63
2022/07/15 09:00:48;;;;;;;;;;;922.50;896.00;;;;;;5090229;28;19970;-65
2022/07/15 09:03:13;;;;;;;;;;;922.40;896.00;;;;;;5090623;28;19912;-66
2022/07/15 09:05:39;;;;;;;;;;;922.30;921.60;;;;;;5090283;28;20354;-66
2022/07/15 09:08:10;;;;;;;;;;;922.50;921.60;;;;;;5090402;28;19908;-66
2022/07/15 09:10:50;;;;;;;;;;;922.00;896.00;;;;;;5090214;28;19927;-66
2022/07/15 09:13:27;;;;;;;;;;;896.90;896.00;;;;;;5090474;28;20354;-64
2022/07/15 09:15:54;;;;;;;;;;;922.10;896.00;;;;;;5090718;28;19987;-66
2022/07/15 09:18:21;;;;;;;;;;;896.60;972.80;;;;;;5090257;28;19915;-66
2022/07/15 09:20:48;;;;;;;;;;;896.80;947.20;;;;;;5090301;28;19916;-63
2022/07/15 09:23:20;;;;;;;;;;;896.80;921.60;;;;;;5090675;28;19912;-66
2022/07/15 09:25:50;;;;;;;;;;;896.40;947.20;;;;;;5093256;28;20441;-62
2022/07/15 09:28:16;;;;;;;;;;;896.90;947.20;;;;;;5094511;28;20007;-65
2022/07/15 09:33:43;;;;;;;;;;;896.80;972.80;;;;;;5093974;28;20014;-65
2022/07/15 09:36:13;;;;;;;;;;;921.70;972.80;;;;;;5094036;28;19954;-60
2022/07/15 09:38:45;;;;;;;;;;;921.60;972.80;;;;;;5093949;28;20354;-62
2022/07/15 09:41:20;;;;;;;;;;;896.80;947.20;;;;;;5093936;28;19951;-64
2022/07/15 09:43:47;;;;;;;;;;;921.60;972.80;;;;;;5094030;28;19923;-60
2022/07/15 09:46:13;;;;;;;;;;;921.70;972.80;;;;;;5094150;28;20132;-65
2022/07/15 09:48:40;;;;;;;;;;;921.80;972.80;;;;;;5093907;28;20346;-60
2022/07/15 09:51:06;;;;;;;;;;;921.70;972.80;;;;;;5093764;28;20007;-65
2022/07/15 09:53:32;;;;;;;;;;;896.90;921.60;;;;;;5093710;28;19947;-64
2022/07/15 09:55:58;;;;;;;;;;;921.60;972.80;;;;;;5093568;28;19912;-60
2022/07/15 09:58:24;;;;;;;;;;;921.60;947.20;;;;;;5093929;28;19908;-59
2022/07/15 10:00:52;;;;;;;;;;;921.60;972.80;;;;;;5093436;28;19920;-61
2022/07/15 10:03:18;;;;;;;;;;;896.70;947.20;;;;;;5093459;28;19912;-60
2022/07/15 10:05:45;;;;;;;;;;;896.00;972.80;;;;;;5093794;28;19912;-66
2022/07/15 10:08:11;;;;;;;;;;;871.20;972.80;;;;;;5093523;28;19909;-65
2022/07/15 10:10:39;;;;;;;;;;;896.30;972.80;;;;;;5093382;28;19982;-65
2022/07/15 10:13:25;;;;;;;;;;;871.30;972.80;;;;;;5091521;28;20358;-64
2022/07/15 10:15:50;;;;;;;;;;;871.30;972.80;;;;;;5091766;28;20376;-66
2022/07/15 10:18:16;;;;;;;;;;;896.40;1024.00;;;;;;5091983;28;19908;-59
2022/07/15 10:20:47;;;;;;;;;;;896.80;998.40;;;;;;5091671;28;20019;-62
2022/07/15 10:23:22;;;;;;;;;;;896.50;947.20;;;;;;5091858;28;19908;-63
2022/07/15 10:25:47;;;;;;;;;;;896.70;972.80;;;;;;5091223;28;19947;-62
2022/07/15 10:28:15;;;;;;;;;;;896.50;972.80;;;;;;5091717;28;19951;-66
2022/07/15 10:30:42;;;;;;;;;;;896.20;972.80;;;;;;5091429;28;20290;-61
2022/07/15 10:33:14;;;;;;;;;;;871.00;1024.00;;;;;;5091502;28;19920;-61
2022/07/15 10:35:41;;;;;;;;;;;871.10;998.40;;;;;;5090691;28;19912;-59
2022/07/15 10:38:29;;;;;;;;;;;871.30;998.40;;;;;;5091145;28;19915;-62
2022/07/15 10:40:55;;;;;;;;;;;896.00;998.40;;;;;;5091602;28;19916;-60
2022/07/15 10:43:36;;;;;;;;;;;896.10;998.40;;;;;;5091319;28;19920;-62
2022/07/15 10:46:11;;;;;;;;;;;896.40;998.40;;;;;;5091182;28;20301;-60
2022/07/15 10:48:37;;;;;;;;;;;896.50;972.80;;;;;;5091389;28;19908;-60
2022/07/15 10:51:03;;;;;;;;;;;896.40;998.40;;;;;;5090576;28;19965;-63
2022/07/15 10:53:29;;;;;;;;;;;896.50;998.40;;;;;;5090793;28;19965;-61
2022/07/15 10:55:54;;;;;;;;;;;896.70;972.80;;;;;;5091364;28;19919;-60
2022/07/15 10:58:20;;;;;;;;;;;896.70;972.80;;;;;;5093011;28;19912;-64
2022/07/15 11:00:46;;;;;;;;;;;896.50;947.20;;;;;;5093038;28;19995;-62
2022/07/15 11:03:13;;;;;;;;;;;896.40;921.60;;;;;;5092382;28;19908;-60
2022/07/15 11:05:46;;;;;;;;;;;896.20;947.20;;;;;;5092101;28;19923;-61
2022/07/15 11:08:30;;;;;;;;;;;896.30;947.20;;;;;;5092470;28;20282;-61
2022/07/15 11:10:56;;;;;;;;;;;896.10;921.60;;;;;;5092451;28;19927;-61
2022/07/15 11:13:32;;;;;;;;;;;896.20;921.60;;;;;;5092283;28;19912;-63
2022/07/15 11:15:58;;;;;;;;;;;871.30;921.60;;;;;;5092330;28;19995;-64
2022/07/15 11:18:24;;;;;;;;;;;871.30;947.20;;;;;;5092287;28;19938;-60
2022/07/15 11:20:50;;;;;;;;;;;871.10;947.20;;;;;;5092084;28;20331;-63
2022/07/15 11:23:17;;;;;;;;;;;870.90;947.20;;;;;;5092233;28;20333;-60
2022/07/15 11:25:43;;;;;;;;;;;871.10;947.20;;;;;;5092208;28;20269;-60
2022/07/15 11:28:08;;;;;;;;;;;871.00;947.20;;;;;;5091914;28;19908;-60
2022/07/15 11:30:41;;;;;;;;;;;871.30;947.20;;;;;;5091858;28;19912;-61
2022/07/15 11:33:09;;;;;;;;;;;871.30;972.80;;;;;;5092075;28;20418;-65
2022/07/15 11:35:46;;;;;;;;;;;896.10;972.80;;;;;;5090395;28;20251;-62
2022/07/15 11:38:11;;;;;;;;;;;896.10;947.20;;;;;;5090171;28;19908;-66
2022/07/15 11:46:09;;;;;;;;;;;896.20;947.20;;;;;;5090343;28;20357;-61
2022/07/15 11:48:36;;;;;;;;;;;896.00;921.60;;;;;;5089062;28;19908;-63
2022/07/15 11:51:02;;;;;;;;;;;896.30;947.20;;;;;;5089800;28;19920;-60
2022/07/15 11:53:33;;;;;;;;;;;896.10;947.20;;;;;;5090074;28;19958;-60
2022/07/15 11:55:59;;;;;;;;;;;896.00;947.20;;;;;;5089625;28;19908;-62
2022/07/15 11:58:26;;;;;;;;;;;896.10;947.20;;;;;;5089961;28;20418;-63
2022/07/15 12:00:51;;;;;;;;;;;896.10;947.20;;;;;;5089496;28;20429;-63
2022/07/15 12:03:17;;;;;;;;;;;871.30;947.20;;;;;;5089833;28;19915;-59
2022/07/15 12:05:57;;;;;;;;;;;871.30;947.20;;;;;;5089640;28;19912;-63
2022/07/15 12:08:33;;;;;;;;;;;896.10;972.80;;;;;;5089902;28;20259;-64
2022/07/15 12:10:59;;;;;;;;;;;896.30;998.40;;;;;;5089380;28;19928;-62
2022/07/15 12:13:25;;;;;;;;;;;896.40;972.80;;;;;;5089704;28;19916;-62
2022/07/15 12:15:50;;;;;;;;;;;896.40;972.80;;;;;;5089175;28;19915;-61
2022/07/15 12:18:16;;;;;;;;;;;896.00;947.20;;;;;;5089857;28;20316;-62
2022/07/15 12:20:42;;;;;;;;;;;896.10;972.80;;;;;;5089458;28;19908;-63
2022/07/15 12:23:09;;;;;;;;;;;896.10;972.80;;;;;;5089683;28;19912;-63
2022/07/15 12:25:34;;;;;;;;;;;896.00;972.80;;;;;;5089498;28;19915;-61
2022/07/15 12:28:00;;;;;;;;;;;896.10;1024.00;;;;;;5089104;28;19994;-63
2022/07/15 12:30:52;;;;;;;;;;;896.30;1024.00;;;;;;5089608;28;20383;-64
2022/07/15 12:33:19;;;;;;;;;;;896.60;998.40;;;;;;5088127;28;19955;-63
2022/07/15 12:35:45;;;;;;;;;;;896.50;972.80;;;;;;5089278;28;19912;-61
2022/07/15 12:38:24;;;;;;;;;;;896.60;998.40;;;;;;5089060;28;19908;-61
2022/07/15 12:40:50;;;;;;;;;;;896.50;998.40;;;;;;5088651;28;20322;-62
2022/07/15 12:43:15;;;;;;;;;;;896.60;998.40;;;;;;5089468;28;19959;-64
2022/07/15 12:45:42;;;;;;;;;;;896.40;972.80;;;;;;5089096;28;19912;-60
2022/07/15 12:48:09;;;;;;;;;;;896.40;998.40;;;;;;5089175;28;19944;-62
2022/07/15 12:50:46;;;;;;;;;;;896.30;972.80;;;;;;5088837;28;19912;-64
2022/07/15 12:53:12;;;;;;;;;;;896.10;998.40;;;;;;5088952;28;19935;-61
2022/07/15 12:55:45;;;;;;;;;;;896.00;998.40;;;;;;5089093;28;19935;-62
2022/07/15 12:58:12;;;;;;;;;;;896.00;998.40;;;;;;5088834;28;20270;-64
2022/07/15 13:00:39;;;;;;;;;;;896.00;998.40;;;;;;5089088;28;20331;-61
2022/07/15 13:03:15;;;;;;;;;;;871.30;1024.00;;;;;;5089061;28;19915;-62
2022/07/15 13:05:42;;;;;;;;;;;896.10;998.40;;;;;;5088661;28;19908;-61
2022/07/15 13:08:09;;;;;;;;;;;896.00;998.40;;;;;;5088555;28;20441;-65
2022/07/15 13:10:35;;;;;;;;;;;896.30;1024.00;;;;;;5088847;28;19920;-66
2022/07/15 13:13:01;;;;;;;;;;;896.30;998.40;;;;;;5088826;28;19946;-61
2022/07/15 13:15:27;;;;;;;;;;;871.30;998.40;;;;;;5088866;28;20641;-63
2022/07/15 13:17:52;;;;;;;;;;;871.30;1024.00;;;;;;5088608;28;19908;-63
2022/07/15 13:20:18;;;;;;;;;;;871.10;1024.00;;;;;;5088009;28;19912;-64
2022/07/15 13:22:44;;;;;;;;;;;871.30;1024.00;;;;;;5090965;28;19957;-60
2022/07/15 13:25:10;;;;;;;;;;;871.10;1024.00;;;;;;5090296;28;19988;-61
2022/07/15 13:27:35;;;;;;;;;;;871.10;1024.00;;;;;;5090264;28;19999;-60
2022/07/15 13:30:01;;;;;;;;;;;871.20;1024.00;;;;;;5090055;28;19915;-63
2022/07/15 13:32:27;;;;;;;;;;;871.30;1024.00;;;;;;5089001;28;19912;-63
2022/07/15 13:34:53;;;;;;;;;;;871.30;998.40;;;;;;5089856;28;20022;-63
2022/07/15 13:37:18;;;;;;;;;;;871.30;1024.00;;;;;;5090183;28;19908;-63
2022/07/15 13:39:44;;;;;;;;;;;871.30;998.40;;;;;;5090009;28;19920;-64
2022/07/15 13:42:09;;;;;;;;;;;871.20;998.40;;;;;;5089915;28;19912;-64
2022/07/15 13:44:35;;;;;;;;;;;871.10;998.40;;;;;;5090179;28;19948;-62
2022/07/15 13:47:00;;;;;;;;;;;871.20;998.40;;;;;;5089858;28;20400;-63
2022/07/15 13:52:10;;;;;;;;;;;871.30;998.40;;;;;;5089842;28;19923;-63
2022/07/15 13:54:36;;;;;;;;;;;871.30;998.40;;;;;;5088816;28;19908;-61
2022/07/15 13:57:01;;;;;;;;;;;896.00;1024.00;;;;;;5088030;28;20666;-61